Time;durP1;ratioP1;P1;durP2;ratioP2;P2;SDS_P1;SDS_P2;PMS_P1;PMS_P2;Temp;Humidity;BMP_temperature;BMP_pressure;BME280_temperature;BME280_humidity;BME280_pressure;Samples;Min_cycle;Max_cycle;Signal;HPM_P1;HPM_P2
2023/12/25 00:00:16;;;;;;;0.70;0.70;;;15.90;73.20;;;;;;5073455;28;20115;-69
2023/12/25 00:02:42;;;;;;;0.50;0.50;;;15.90;73.20;;;;;;5073193;28;20078;-69
2023/12/25 00:05:07;;;;;;;0.40;0.40;;;15.90;73.20;;;;;;5073641;28;20033;-70
2023/12/25 00:07:33;;;;;;;0.50;0.50;;;15.90;73.10;;;;;;5073414;28;20025;-69
2023/12/25 00:09:58;;;;;;;0.35;0.35;;;15.90;73.00;;;;;;5073255;28;20032;-69
2023/12/25 00:12:24;;;;;;;0.43;0.43;;;15.90;72.90;;;;;;5073218;28;20028;-69
2023/12/25 00:14:50;;;;;;;0.40;0.40;;;15.80;72.80;;;;;;5073158;28;20533;-69
2023/12/25 00:17:15;;;;;;;0.50;0.50;;;15.80;72.80;;;;;;5073149;28;20021;-69
2023/12/25 00:19:41;;;;;;;0.40;0.40;;;15.80;72.70;;;;;;5072991;28;20044;-70
2023/12/25 00:22:06;;;;;;;0.45;0.45;;;15.80;72.80;;;;;;5072840;28;20028;-69
2023/12/25 00:24:32;;;;;;;0.40;0.40;;;15.80;72.90;;;;;;5073082;28;20035;-69
2023/12/25 00:26:57;;;;;;;0.40;0.40;;;15.80;73.00;;;;;;5072837;28;20035;-69
2023/12/25 00:29:23;;;;;;;0.47;0.47;;;15.80;72.90;;;;;;5072797;28;20415;-71
2023/12/25 00:31:48;;;;;;;0.47;0.47;;;15.80;73.00;;;;;;5072800;28;20029;-71
2023/12/25 00:34:15;;;;;;;0.40;0.40;;;15.80;73.00;;;;;;5072753;28;20028;-71
2023/12/25 00:36:40;;;;;;;0.43;0.43;;;15.80;73.10;;;;;;5072951;28;20035;-69
2023/12/25 00:39:06;;;;;;;0.40;0.40;;;15.80;73.00;;;;;;5072567;28;20024;-72
2023/12/25 00:41:31;;;;;;;0.50;0.50;;;15.80;73.10;;;;;;5073175;28;20539;-70
2023/12/25 00:44:00;;;;;;;0.40;0.40;;;15.80;73.10;;;;;;5072464;28;20111;-71
2023/12/25 00:46:26;;;;;;;0.40;0.40;;;15.90;73.10;;;;;;5072937;28;20033;-70
2023/12/25 00:48:51;;;;;;;0.50;0.50;;;15.90;73.20;;;;;;5054508;28;20013;-71
2023/12/25 00:51:17;;;;;;;0.50;0.50;;;15.90;73.10;;;;;;5072963;28;20056;-70
2023/12/25 00:53:42;;;;;;;0.40;0.40;;;15.90;73.10;;;;;;5072447;28;20036;-70
2023/12/25 00:56:08;;;;;;;0.50;0.50;;;15.90;73.10;;;;;;5072232;28;20143;-71
2023/12/25 00:58:34;;;;;;;0.40;0.40;;;16.00;73.10;;;;;;5072342;28;20028;-70
2023/12/25 01:00:59;;;;;;;0.43;0.43;;;16.00;73.20;;;;;;5072546;28;20119;-70
2023/12/25 01:03:25;;;;;;;0.60;0.60;;;16.00;73.20;;;;;;5072139;28;20027;-72
2023/12/25 01:05:50;;;;;;;0.40;0.40;;;16.00;73.20;;;;;;5072526;28;20040;-72
2023/12/25 01:08:16;;;;;;;0.50;0.50;;;16.10;73.20;;;;;;5071998;28;20047;-72
2023/12/25 01:10:41;;;;;;;0.82;0.82;;;16.20;73.20;;;;;;5072271;28;20031;-69
2023/12/25 01:13:07;;;;;;;0.40;0.40;;;16.20;73.20;;;;;;5071982;28;20064;-70
2023/12/25 01:15:32;;;;;;;0.50;0.50;;;16.20;73.00;;;;;;5072369;28;20033;-70
2023/12/25 01:17:58;;;;;;;0.43;0.43;;;16.20;73.00;;;;;;5071929;28;20060;-71
2023/12/25 01:20:24;;;;;;;0.40;0.40;;;16.20;73.00;;;;;;5054083;28;20139;-70
2023/12/25 01:22:49;;;;;;;0.40;0.40;;;16.20;72.80;;;;;;5071719;28;20017;-71
2023/12/25 01:25:15;;;;;;;0.50;0.50;;;16.10;72.80;;;;;;5071961;28;20036;-71
2023/12/25 01:27:41;;;;;;;0.40;0.40;;;16.10;72.90;;;;;;5071915;28;20079;-71
2023/12/25 01:30:10;;;;;;;0.40;0.40;;;16.00;72.80;;;;;;5072254;28;20024;-71
2023/12/25 01:32:36;;;;;;;0.40;0.40;;;16.00;72.90;;;;;;5071921;28;20096;-71
2023/12/25 01:35:02;;;;;;;0.50;0.50;;;16.00;73.00;;;;;;5071841;28;20124;-70
2023/12/25 01:37:27;;;;;;;0.50;0.50;;;15.90;73.00;;;;;;5071561;28;20041;-71
2023/12/25 01:39:53;;;;;;;0.50;0.50;;;16.00;73.00;;;;;;5071751;28;20120;-71
2023/12/25 01:42:18;;;;;;;0.47;0.47;;;15.90;73.00;;;;;;5070965;28;20029;-72
2023/12/25 01:44:46;;;;;;;0.60;0.60;;;15.90;73.10;;;;;;5071432;28;20142;-72
2023/12/25 01:47:12;;;;;;;0.40;0.40;;;15.90;73.10;;;;;;5071944;28;20052;-71
2023/12/25 01:49:38;;;;;;;0.40;0.40;;;15.90;73.10;;;;;;5071507;28;20040;-71
2023/12/25 01:52:04;;;;;;;0.43;0.43;;;15.90;73.10;;;;;;5053870;28;20070;-71
2023/12/25 01:54:30;;;;;;;0.50;0.50;;;15.80;73.20;;;;;;5071339;28;20388;-71
2023/12/25 01:56:56;;;;;;;0.40;0.40;;;15.90;73.10;;;;;;5071289;28;20067;-72
2023/12/25 01:59:21;;;;;;;0.40;0.40;;;15.90;73.10;;;;;;5071374;28;20075;-72
2023/12/25 02:01:47;;;;;;;0.50;0.50;;;15.80;73.20;;;;;;5071677;28;20412;-72
2023/12/25 02:04:12;;;;;;;0.50;0.50;;;15.80;73.20;;;;;;5071134;28;20032;-72
2023/12/25 02:06:38;;;;;;;0.40;0.40;;;15.90;73.20;;;;;;5053771;28;20030;-72
2023/12/25 02:09:04;;;;;;;0.50;0.50;;;15.90;73.20;;;;;;5071400;28;20025;-72
2023/12/25 02:11:29;;;;;;;0.40;0.40;;;15.90;73.30;;;;;;5071275;28;20392;-72
2023/12/25 02:13:57;;;;;;;0.40;0.40;;;15.90;73.20;;;;;;5053407;28;20464;-70
2023/12/25 02:16:24;;;;;;;0.38;0.38;;;15.90;73.30;;;;;;5071780;28;20483;-70
2023/12/25 02:18:50;;;;;;;0.40;0.40;;;15.90;73.10;;;;;;5071231;28;20028;-71
2023/12/25 02:21:16;;;;;;;0.50;0.50;;;15.80;73.00;;;;;;5071260;28;20047;-71
2023/12/25 02:23:44;;;;;;;0.40;0.40;;;15.80;73.00;;;;;;5071316;28;20028;-71
2023/12/25 02:26:10;;;;;;;0.40;0.40;;;15.80;72.90;;;;;;5071585;28;20036;-70
2023/12/25 02:28:36;;;;;;;0.40;0.40;;;15.70;72.90;;;;;;5071089;28;20136;-71
2023/12/25 02:31:01;;;;;;;0.40;0.40;;;15.70;72.80;;;;;;5071573;28;20064;-71
2023/12/25 02:33:27;;;;;;;0.40;0.40;;;15.70;72.90;;;;;;5071171;28;20032;-70
2023/12/25 02:35:52;;;;;;;0.50;0.50;;;15.70;72.90;;;;;;5071329;28;20040;-71
2023/12/25 02:38:17;;;;;;;0.40;0.40;;;15.70;72.90;;;;;;5070988;28;20036;-71
2023/12/25 02:40:43;;;;;;;0.40;0.40;;;15.60;72.90;;;;;;5071594;28;20049;-71
2023/12/25 02:43:09;;;;;;;0.50;0.50;;;15.60;72.80;;;;;;5070966;28;20518;-71
2023/12/25 02:45:35;;;;;;;0.35;0.35;;;15.60;72.90;;;;;;5053066;28;20119;-71
2023/12/25 02:48:00;;;;;;;0.50;0.50;;;15.60;72.80;;;;;;5070993;28;20099;-71
2023/12/25 02:50:26;;;;;;;0.40;0.40;;;15.60;72.80;;;;;;5071090;28;20063;-71
2023/12/25 02:52:52;;;;;;;0.40;0.40;;;15.60;72.70;;;;;;5070837;28;20487;-71
2023/12/25 02:55:17;;;;;;;0.50;0.50;;;15.60;72.60;;;;;;5074298;28;20395;-71
2023/12/25 02:57:43;;;;;;;0.40;0.40;;;15.60;72.60;;;;;;5056866;28;20016;-71
2023/12/25 03:00:09;;;;;;;0.40;0.40;;;15.50;72.70;;;;;;5074700;28;20036;-71
2023/12/25 03:02:34;;;;;;;0.40;0.40;;;15.50;72.70;;;;;;5074409;28;20027;-71
2023/12/25 03:05:00;;;;;;;0.50;0.50;;;15.40;72.70;;;;;;5074475;28;20387;-71
2023/12/25 03:07:25;;;;;;;0.40;0.40;;;15.40;72.70;;;;;;5074417;28;20036;-71
2023/12/25 03:09:51;;;;;;;0.50;0.50;;;15.40;72.60;;;;;;5074483;28;20035;-71
2023/12/25 03:12:16;;;;;;;0.40;0.40;;;15.40;72.50;;;;;;5074391;28;20099;-71
2023/12/25 03:14:42;;;;;;;1.10;0.52;;;15.40;72.60;;;;;;5074208;28;20036;-70
2023/12/25 03:17:07;;;;;;;0.40;0.40;;;15.40;72.40;;;;;;5074281;28;20494;-70
2023/12/25 03:19:33;;;;;;;0.40;0.40;;;15.30;72.40;;;;;;5074193;28;20112;-71
2023/12/25 03:21:58;;;;;;;0.50;0.50;;;15.30;72.40;;;;;;5074026;28;20032;-72
2023/12/25 03:24:24;;;;;;;0.50;0.50;;;15.30;72.40;;;;;;5074352;28;20365;-70
2023/12/25 03:26:50;;;;;;;0.40;0.40;;;15.30;72.30;;;;;;5074061;28;20016;-71
2023/12/25 03:29:15;;;;;;;0.40;0.40;;;15.30;72.30;;;;;;5073844;28;20023;-70
2023/12/25 03:31:41;;;;;;;0.45;0.45;;;15.30;72.30;;;;;;5073989;28;20028;-71
2023/12/25 03:34:06;;;;;;;0.40;0.40;;;15.30;72.30;;;;;;5073938;28;20511;-72
2023/12/25 03:36:32;;;;;;;0.40;0.40;;;15.20;72.20;;;;;;5074392;28;20059;-71
2023/12/25 03:38:57;;;;;;;0.50;0.50;;;15.20;72.20;;;;;;5055967;28;20060;-71
2023/12/25 03:41:22;;;;;;;0.30;0.30;;;15.20;72.20;;;;;;5073688;28;20377;-72
2023/12/25 03:43:48;;;;;;;0.40;0.40;;;15.20;72.20;;;;;;5073691;28;20028;-71
2023/12/25 03:46:13;;;;;;;0.40;0.40;;;15.20;72.20;;;;;;5073570;28;20479;-72
2023/12/25 03:48:39;;;;;;;0.40;0.40;;;15.20;72.20;;;;;;5073759;28;20027;-71
2023/12/25 03:51:04;;;;;;;0.40;0.40;;;15.20;72.30;;;;;;5073885;28;20032;-71
2023/12/25 03:53:31;;;;;;;0.40;0.40;;;15.20;72.40;;;;;;5073825;28;20037;-71
2023/12/25 03:56:02;;;;;;;0.40;0.40;;;15.20;72.40;;;;;;5073372;28;20064;-71
2023/12/25 03:58:27;;;;;;;0.50;0.50;;;15.20;72.50;;;;;;5073712;28;20052;-70
2023/12/25 04:00:53;;;;;;;0.40;0.40;;;15.20;72.40;;;;;;5073666;28;20508;-70
2023/12/25 04:03:18;;;;;;;0.43;0.43;;;15.20;72.50;;;;;;5073192;28;20135;-69
2023/12/25 04:05:44;;;;;;;0.40;0.40;;;15.20;72.50;;;;;;5073139;28;20082;-68
2023/12/25 04:08:09;;;;;;;0.50;0.50;;;15.20;72.60;;;;;;5073267;28;20103;-68
2023/12/25 04:10:35;;;;;;;0.60;0.60;;;15.20;72.60;;;;;;5073690;28;20029;-68
2023/12/25 04:13:00;;;;;;;0.40;0.40;;;15.20;72.60;;;;;;5073177;28;20115;-68
2023/12/25 04:15:26;;;;;;;0.40;0.40;;;15.20;72.50;;;;;;5073356;28;20040;-69
2023/12/25 04:17:51;;;;;;;0.45;0.45;;;15.20;72.40;;;;;;5073067;28;20028;-68
2023/12/25 04:20:17;;;;;;;0.47;0.47;;;15.20;72.50;;;;;;5073162;28;20387;-69
2023/12/25 04:22:42;;;;;;;4.13;0.80;;;15.10;72.40;;;;;;5073103;28;20028;-70
2023/12/25 04:25:08;;;;;;;0.47;0.47;;;15.10;72.40;;;;;;5073264;28;20052;-70
2023/12/25 04:27:33;;;;;;;0.60;0.60;;;15.10;72.50;;;;;;5072881;28;20112;-69
2023/12/25 04:29:59;;;;;;;0.50;0.50;;;15.10;72.50;;;;;;5072874;28;20052;-69
2023/12/25 04:32:24;;;;;;;0.45;0.45;;;15.00;72.60;;;;;;5072898;28;20024;-70
2023/12/25 04:34:50;;;;;;;0.40;0.40;;;15.00;72.40;;;;;;5072748;28;20119;-69
2023/12/25 04:37:15;;;;;;;0.35;0.35;;;15.00;72.50;;;;;;5072722;28;20029;-67
2023/12/25 04:39:41;;;;;;;0.50;0.50;;;14.90;72.50;;;;;;5072814;28;20049;-68
2023/12/25 04:42:06;;;;;;;0.40;0.40;;;14.90;72.40;;;;;;5072529;28;20024;-68
2023/12/25 04:44:32;;;;;;;0.40;0.40;;;14.90;72.40;;;;;;5072446;28;20415;-69
2023/12/25 04:46:57;;;;;;;0.40;0.40;;;14.80;72.40;;;;;;5072510;28;20115;-69
2023/12/25 04:49:23;;;;;;;0.45;0.45;;;14.80;72.40;;;;;;5072405;28;20426;-68
2023/12/25 04:51:48;;;;;;;0.40;0.40;;;14.70;72.40;;;;;;5072339;28;20025;-68
2023/12/25 04:54:14;;;;;;;0.40;0.40;;;14.70;72.30;;;;;;5072444;28;20033;-69
2023/12/25 04:56:39;;;;;;;0.40;0.40;;;14.70;72.30;;;;;;5072343;28;20106;-68
2023/12/25 04:59:05;;;;;;;0.38;0.38;;;14.70;72.40;;;;;;5072206;28;20029;-69
2023/12/25 05:01:30;;;;;;;0.40;0.40;;;14.60;72.30;;;;;;5072650;28;20459;-69
2023/12/25 05:03:56;;;;;;;0.70;0.70;;;14.60;72.30;;;;;;5072014;28;20029;-69
2023/12/25 05:06:22;;;;;;;0.40;0.40;;;14.60;72.40;;;;;;5072531;28;20025;-69
2023/12/25 05:08:47;;;;;;;0.50;0.50;;;14.60;72.30;;;;;;5072423;28;20031;-71
2023/12/25 05:11:12;;;;;;;0.45;0.45;;;14.60;72.40;;;;;;5072362;28;20503;-70
2023/12/25 05:13:38;;;;;;;0.50;0.50;;;14.50;72.50;;;;;;5072072;28;20104;-71
2023/12/25 05:16:04;;;;;;;0.52;0.52;;;14.50;72.50;;;;;;5071068;28;20480;-71
2023/12/25 05:18:29;;;;;;;0.40;0.40;;;14.50;72.50;;;;;;5071974;28;20060;-71
2023/12/25 05:20:55;;;;;;;0.40;0.40;;;14.50;72.50;;;;;;5072071;28;20037;-71
2023/12/25 05:23:20;;;;;;;0.40;0.40;;;14.50;72.60;;;;;;5072004;28;20032;-71
2023/12/25 05:25:46;;;;;;;0.50;0.50;;;14.50;72.70;;;;;;5072340;28;20049;-71
2023/12/25 05:28:11;;;;;;;0.50;0.50;;;14.50;72.70;;;;;;5071677;28;20029;-71
2023/12/25 05:30:37;;;;;;;0.43;0.43;;;14.50;72.70;;;;;;5072081;28;20349;-71
2023/12/25 05:33:03;;;;;;;0.50;0.50;;;14.40;72.70;;;;;;5071625;28;20032;-70
2023/12/25 05:35:29;;;;;;;0.50;0.50;;;14.50;72.80;;;;;;5071933;28;20056;-70
2023/12/25 05:37:55;;;;;;;0.40;0.40;;;14.50;72.80;;;;;;5071512;28;20025;-70
2023/12/25 05:40:21;;;;;;;0.50;0.50;;;14.50;72.80;;;;;;5071737;28;20066;-71
2023/12/25 05:42:47;;;;;;;0.40;0.40;;;14.50;72.80;;;;;;5071667;28;20036;-71
2023/12/25 05:45:12;;;;;;;0.40;0.40;;;14.50;72.90;;;;;;5071566;28;20097;-71
2023/12/25 05:47:39;;;;;;;0.50;0.50;;;14.50;73.00;;;;;;5071500;28;20505;-71
2023/12/25 05:50:07;;;;;;;0.40;0.40;;;14.50;72.90;;;;;;5071442;28;20032;-71
2023/12/25 05:52:33;;;;;;;0.50;0.50;;;14.50;73.00;;;;;;5071555;28;20498;-72
2023/12/25 05:55:00;;;;;;;0.40;0.40;;;14.60;72.90;;;;;;5071214;28;20044;-71
2023/12/25 05:57:26;;;;;;;0.40;0.40;;;14.60;73.00;;;;;;5071757;28;20111;-71
2023/12/25 05:59:51;;;;;;;0.40;0.40;;;14.60;73.00;;;;;;5071662;28;20107;-71
2023/12/25 06:02:17;;;;;;;0.40;0.40;;;14.60;72.90;;;;;;5071195;28;20380;-71
2023/12/25 06:04:42;;;;;;;0.40;0.40;;;14.60;72.80;;;;;;5071489;28;20020;-71
2023/12/25 06:07:09;;;;;;;0.50;0.50;;;14.60;72.90;;;;;;5071321;28;20056;-72
2023/12/25 06:09:35;;;;;;;0.50;0.50;;;14.60;73.00;;;;;;5071629;28;20025;-72
2023/12/25 06:12:00;;;;;;;0.50;0.50;;;14.70;72.90;;;;;;5071306;28;20044;-71
2023/12/25 06:14:27;;;;;;;0.47;0.47;;;14.70;73.00;;;;;;5071284;28;20460;-71
2023/12/25 06:16:52;;;;;;;0.40;0.40;;;14.70;73.00;;;;;;5071369;28;20443;-71
2023/12/25 06:19:18;;;;;;;0.40;0.40;;;14.70;73.00;;;;;;5071223;28;20025;-69
2023/12/25 06:21:43;;;;;;;0.50;0.50;;;14.70;72.90;;;;;;5071228;28;20391;-70
2023/12/25 06:24:09;;;;;;;0.47;0.47;;;14.70;72.80;;;;;;5070916;28;20037;-69
2023/12/25 06:26:34;;;;;;;0.40;0.40;;;14.70;72.80;;;;;;5071003;28;20032;-69
2023/12/25 06:29:00;;;;;;;0.40;0.40;;;14.80;72.80;;;;;;5074446;28;20022;-69
2023/12/25 06:31:25;;;;;;;0.40;0.40;;;14.70;72.80;;;;;;5075451;28;20063;-69
2023/12/25 06:33:51;;;;;;;0.40;0.40;;;14.80;72.80;;;;;;5075079;28;20033;-69
2023/12/25 06:36:16;;;;;;;0.50;0.50;;;14.80;72.90;;;;;;5075237;28;20028;-69
2023/12/25 06:38:42;;;;;;;0.47;0.47;;;14.80;72.90;;;;;;5074967;28;20039;-69
2023/12/25 06:41:10;;;;;;;0.50;0.50;;;14.80;72.80;;;;;;5075194;28;20028;-69
2023/12/25 06:43:36;;;;;;;0.40;0.40;;;14.80;72.80;;;;;;5056823;28;20033;-69
2023/12/25 06:46:01;;;;;;;0.50;0.50;;;14.90;72.90;;;;;;5075022;28;20047;-69
2023/12/25 06:48:27;;;;;;;0.50;0.50;;;14.90;72.80;;;;;;5074812;28;20396;-69
2023/12/25 06:50:53;;;;;;;0.40;0.40;;;14.90;72.80;;;;;;5075017;28;20099;-69
2023/12/25 06:53:19;;;;;;;0.40;0.40;;;14.90;72.80;;;;;;5074695;28;20108;-69
2023/12/25 06:55:44;;;;;;;0.45;0.45;;;14.90;72.80;;;;;;5074594;28;20040;-69
2023/12/25 06:58:10;;;;;;;0.40;0.40;;;15.00;72.70;;;;;;5074487;28;20040;-69
2023/12/25 07:00:35;;;;;;;0.40;0.40;;;15.00;72.70;;;;;;5075055;28;20060;-69
2023/12/25 07:03:01;;;;;;;0.43;0.43;;;15.00;72.70;;;;;;5074267;28;20035;-69
2023/12/25 07:05:26;;;;;;;0.40;0.40;;;15.00;72.70;;;;;;5074673;28;20069;-69
2023/12/25 07:07:51;;;;;;;0.40;0.40;;;15.00;72.70;;;;;;5074571;28;20035;-69
2023/12/25 07:10:18;;;;;;;0.40;0.40;;;15.00;72.80;;;;;;5074357;28;20025;-69
2023/12/25 07:12:43;;;;;;;0.40;0.40;;;15.10;72.90;;;;;;5074366;28;20035;-69
2023/12/25 07:15:09;;;;;;;0.50;0.50;;;15.20;72.80;;;;;;5074368;28;20396;-69
2023/12/25 07:17:35;;;;;;;0.43;0.43;;;15.20;72.90;;;;;;5074214;28;20039;-69
2023/12/25 07:20:00;;;;;;;0.47;0.47;;;15.20;72.80;;;;;;5074346;28;20040;-69
2023/12/25 07:22:27;;;;;;;0.40;0.40;;;15.20;72.80;;;;;;5073931;28;20033;-69
2023/12/25 07:24:52;;;;;;;0.40;0.40;;;15.30;72.80;;;;;;5074234;28;20486;-70
2023/12/25 07:27:18;;;;;;;0.40;0.40;;;15.30;72.80;;;;;;5074002;28;20108;-69
2023/12/25 07:29:43;;;;;;;0.50;0.50;;;15.30;72.70;;;;;;5074509;28;20025;-69
2023/12/25 07:32:10;;;;;;;0.50;0.50;;;15.40;72.60;;;;;;5074016;28;20111;-69
2023/12/25 07:34:36;;;;;;;0.40;0.40;;;15.40;72.60;;;;;;5073961;28;20074;-69
2023/12/25 07:37:02;;;;;;;0.40;0.40;;;15.40;72.50;;;;;;5073802;28;20423;-70
2023/12/25 07:39:27;;;;;;;0.30;0.30;;;15.40;72.50;;;;;;5072826;28;20060;-69
2023/12/25 07:41:55;;;;;;;0.40;0.40;;;15.30;72.50;;;;;;5073805;28;20033;-69
2023/12/25 07:44:21;;;;;;;0.40;0.40;;;15.40;72.50;;;;;;5055717;28;20035;-69
2023/12/25 07:46:46;;;;;;;0.40;0.40;;;15.40;72.50;;;;;;5073816;28;20498;-71
2023/12/25 07:49:12;;;;;;;0.38;0.38;;;15.30;72.40;;;;;;5073771;28;20100;-70
2023/12/25 07:51:37;;;;;;;0.50;0.50;;;15.30;72.40;;;;;;5073524;28;20392;-69
2023/12/25 07:54:03;;;;;;;0.40;0.40;;;15.30;72.40;;;;;;5073576;28;20028;-69
2023/12/25 07:56:29;;;;;;;0.38;0.38;;;15.30;72.20;;;;;;5073299;28;20032;-69
2023/12/25 07:58:54;;;;;;;0.43;0.43;;;15.30;72.30;;;;;;5073504;28;20388;-70
2023/12/25 08:01:22;;;;;;;0.43;0.43;;;15.20;72.50;;;;;;5074016;28;20059;-69
2023/12/25 08:03:51;;;;;;;0.40;0.40;;;15.20;72.60;;;;;;5073608;28;20027;-69
2023/12/25 08:06:17;;;;;;;0.40;0.40;;;15.20;72.60;;;;;;5073880;28;20545;-69
2023/12/25 08:08:44;;;;;;;0.47;0.47;;;15.20;72.60;;;;;;5073327;28;20059;-70
2023/12/25 08:11:13;;;;;;;0.43;0.43;;;15.20;72.70;;;;;;5073451;28;20020;-70
2023/12/25 08:13:38;;;;;;;0.40;0.40;;;15.30;72.70;;;;;;5073229;28;20531;-69
2023/12/25 08:16:04;;;;;;;0.40;0.40;;;15.20;72.70;;;;;;5073467;28;20128;-69
2023/12/25 08:18:30;;;;;;;0.50;0.50;;;15.20;72.80;;;;;;5072994;28;20499;-69
2023/12/25 08:20:55;;;;;;;0.40;0.40;;;15.20;72.80;;;;;;5072901;28;20491;-70
2023/12/25 08:23:21;;;;;;;0.40;0.40;;;15.20;72.70;;;;;;5072984;28;20028;-69
2023/12/25 08:25:46;;;;;;;0.40;0.40;;;15.30;72.80;;;;;;5073228;28;20430;-69
2023/12/25 08:28:12;;;;;;;0.50;0.50;;;15.20;72.80;;;;;;5054813;28;20020;-69
2023/12/25 08:30:37;;;;;;;0.40;0.40;;;15.20;72.90;;;;;;5073178;28;20498;-69
2023/12/25 08:33:03;;;;;;;0.55;0.55;;;15.30;72.80;;;;;;5072708;28;20025;-69
2023/12/25 08:35:28;;;;;;;0.47;0.47;;;15.30;72.80;;;;;;5073248;28;20105;-70
2023/12/25 08:37:54;;;;;;;0.47;0.47;;;15.20;72.80;;;;;;5072616;28;20028;-70
2023/12/25 08:40:19;;;;;;;0.70;0.70;;;15.20;72.90;;;;;;5072852;28;20037;-69
2023/12/25 08:42:45;;;;;;;0.30;0.30;;;15.30;72.90;;;;;;5072532;28;20457;-70
2023/12/25 08:45:11;;;;;;;0.40;0.40;;;15.20;72.90;;;;;;5072696;28;20498;-68
2023/12/25 08:47:37;;;;;;;0.40;0.40;;;15.20;72.80;;;;;;5072528;28;20024;-68
2023/12/25 08:50:02;;;;;;;0.45;0.45;;;15.20;72.90;;;;;;5072720;28;20032;-68
2023/12/25 08:52:28;;;;;;;0.40;0.40;;;15.30;72.90;;;;;;5054489;28;20016;-68
2023/12/25 08:54:53;;;;;;;0.50;0.50;;;15.30;72.90;;;;;;5072153;28;20032;-69
2023/12/25 08:57:19;;;;;;;0.40;0.40;;;15.30;72.80;;;;;;5072113;28;20419;-69
2023/12/25 08:59:49;;;;;;;0.45;0.45;;;15.30;72.80;;;;;;5054295;28;20032;-69
2023/12/25 09:02:15;;;;;;;0.50;0.50;;;15.30;72.90;;;;;;5072030;28;20031;-69
2023/12/25 09:04:40;;;;;;;0.40;0.40;;;15.30;72.80;;;;;;5072310;28;20033;-69
2023/12/25 09:07:06;;;;;;;0.50;0.50;;;15.30;72.90;;;;;;5072364;28;20391;-69
2023/12/25 09:09:31;;;;;;;1.95;0.98;;;15.30;72.90;;;;;;5071941;28;20102;-70
2023/12/25 09:11:57;;;;;;;0.47;0.47;;;15.40;72.90;;;;;;5071506;28;20468;-70
2023/12/25 09:14:22;;;;;;;0.50;0.50;;;15.50;72.90;;;;;;5071470;28;20100;-69
2023/12/25 09:16:48;;;;;;;0.50;0.50;;;15.50;72.90;;;;;;5071505;28;20024;-70
2023/12/25 09:19:13;;;;;;;0.40;0.40;;;15.50;72.90;;;;;;5071396;28;20035;-70
2023/12/25 09:21:39;;;;;;;0.40;0.40;;;15.60;72.90;;;;;;5071816;28;20032;-70
2023/12/25 09:24:05;;;;;;;0.40;0.40;;;15.60;72.80;;;;;;5071349;28;20436;-70
2023/12/25 09:26:31;;;;;;;0.40;0.40;;;15.60;72.70;;;;;;5070495;28;20085;-69
2023/12/25 09:28:57;;;;;;;0.40;0.40;;;15.70;72.70;;;;;;5071879;28;20028;-69
2023/12/25 09:31:22;;;;;;;0.40;0.40;;;15.60;72.70;;;;;;5071769;28;20056;-69
2023/12/25 09:33:48;;;;;;;0.50;0.50;;;15.70;72.60;;;;;;5069910;28;20048;-69
2023/12/25 09:36:14;;;;;;;0.40;0.40;;;15.70;72.60;;;;;;5071822;28;20045;-69
2023/12/25 09:38:40;;;;;;;0.50;0.50;;;15.70;72.70;;;;;;5071548;28;20025;-69
2023/12/25 09:41:08;;;;;;;0.40;0.40;;;15.70;72.90;;;;;;5050714;28;20067;-69
2023/12/25 09:43:38;;;;;;;0.38;0.38;;;15.70;72.80;;;;;;5071862;28;20024;-69
2023/12/25 09:46:04;;;;;;;2.92;0.77;;;15.70;72.80;;;;;;5069980;28;20490;-69
2023/12/25 09:48:30;;;;;;;0.50;0.50;;;15.70;72.70;;;;;;5053404;28;20024;-69
2023/12/25 09:50:57;;;;;;;0.60;0.60;;;15.70;72.60;;;;;;5068059;28;20590;-68
2023/12/25 09:53:23;;;;;;;1.75;0.95;;;15.70;72.70;;;;;;5071402;28;20029;-69
2023/12/25 09:55:50;;;;;;;0.40;0.40;;;15.70;72.90;;;;;;5070959;28;20561;-69
2023/12/25 09:58:16;;;;;;;0.40;0.40;;;15.70;72.70;;;;;;5071223;28;20024;-69
2023/12/25 10:00:42;;;;;;;0.40;0.40;;;15.70;72.70;;;;;;5071892;28;20123;-69
2023/12/25 10:03:09;;;;;;;0.50;0.50;;;15.70;72.80;;;;;;5070812;28;20395;-69
2023/12/25 10:05:35;;;;;;;0.40;0.40;;;15.70;73.00;;;;;;5071649;28;20031;-69
2023/12/25 10:08:00;;;;;;;0.50;0.50;;;15.70;73.10;;;;;;5071347;28;20032;-69
2023/12/25 10:10:29;;;;;;;0.55;0.55;;;15.80;73.00;;;;;;5071360;28;20078;-69
2023/12/25 10:12:56;;;;;;;0.40;0.40;;;15.80;73.00;;;;;;5071566;28;20028;-70
2023/12/25 10:15:23;;;;;;;0.40;0.40;;;15.80;72.80;;;;;;5071355;28;20502;-70
2023/12/25 10:18:02;;;;;;;0.77;0.77;;;15.70;72.80;;;;;;5071451;28;20492;-69
2023/12/25 10:20:27;;;;;;;0.40;0.40;;;15.80;72.90;;;;;;5071502;28;20089;-69
2023/12/25 10:22:53;;;;;;;0.40;0.40;;;15.80;73.00;;;;;;5071195;28;20025;-70
2023/12/25 10:25:25;;;;;;;0.40;0.40;;;15.80;72.90;;;;;;5071207;28;20097;-70
2023/12/25 10:27:50;;;;;;;0.50;0.50;;;15.80;73.00;;;;;;5053443;28;20078;-71
2023/12/25 10:30:21;;;;;;;0.40;0.40;;;15.90;72.90;;;;;;5071343;28;20033;-69
2023/12/25 10:32:47;;;;;;;0.50;0.50;;;15.90;72.90;;;;;;5071445;28;20515;-69
2023/12/25 10:35:18;;;;;;;0.40;0.40;;;15.90;72.70;;;;;;5071314;28;20537;-71
2023/12/25 10:37:45;;;;;;;4.70;1.67;;;15.90;72.80;;;;;;5071090;28;20027;-69
2023/12/25 10:40:26;;;;;;;0.45;0.45;;;15.90;72.80;;;;;;5071217;28;20040;-69
2023/12/25 10:42:55;;;;;;;0.40;0.40;;;16.00;72.70;;;;;;5070899;28;20033;-70
2023/12/25 10:45:30;;;;;;;0.50;0.50;;;16.00;72.80;;;;;;5070899;28;20033;-70
2023/12/25 10:47:57;;;;;;;0.50;0.50;;;16.00;72.70;;;;;;5071065;28;20020;-70
2023/12/25 10:50:25;;;;;;;0.40;0.40;;;16.00;72.50;;;;;;5071026;28;20028;-70
2023/12/25 10:52:51;;;;;;;0.50;0.50;;;15.90;72.30;;;;;;5070997;28;20029;-70
2023/12/25 10:55:22;;;;;;;0.40;0.40;;;15.80;72.30;;;;;;5070769;28;20064;-70
2023/12/25 10:57:48;;;;;;;;;;;15.70;72.20;;;;;;5071587;28;20102;-69
2023/12/25 11:00:14;;;;;;;0.40;0.40;;;15.70;72.30;;;;;;5071029;28;19917;-71
2023/12/25 11:02:41;;;;;;;0.40;0.40;;;15.60;72.30;;;;;;5070777;28;20422;-71
2023/12/25 11:05:08;;;;;;;0.47;0.47;;;15.60;72.60;;;;;;5071025;28;20085;-72
2023/12/25 11:07:34;;;;;;;0.50;0.50;;;15.60;72.80;;;;;;5070837;28;20508;-71
2023/12/25 11:10:01;;;;;;;0.50;0.50;;;15.60;72.70;;;;;;5070911;28;20058;-71
2023/12/25 11:12:27;;;;;;;0.45;0.45;;;15.60;72.80;;;;;;5070725;28;20111;-71
2023/12/25 11:14:53;;;;;;;0.40;0.40;;;15.60;72.70;;;;;;5072292;28;20414;-72
2023/12/25 11:17:19;;;;;;;0.40;0.40;;;15.60;72.70;;;;;;5074502;28;20203;-71
2023/12/25 11:19:46;;;;;;;0.40;0.40;;;15.60;72.70;;;;;;5074371;28;20036;-72
2023/12/25 11:22:28;;;;;;;0.50;0.50;;;15.50;72.70;;;;;;5074087;28;20103;-71
2023/12/25 11:24:55;;;;;;;0.45;0.45;;;15.60;72.80;;;;;;5074216;28;20112;-72
2023/12/25 11:27:21;;;;;;;0.40;0.40;;;15.60;72.90;;;;;;5074350;28;20078;-71
2023/12/25 11:29:48;;;;;;;0.40;0.40;;;15.60;72.80;;;;;;5056254;28;20028;-71
2023/12/25 11:32:17;;;;;;;0.50;0.50;;;15.60;72.80;;;;;;5073891;28;20074;-71
2023/12/25 11:34:48;;;;;;;0.40;0.40;;;15.60;72.80;;;;;;5074069;28;20383;-71
2023/12/25 11:37:18;;;;;;;;;;;15.60;72.80;;;;;;5074094;28;20032;-72
2023/12/25 11:39:56;;;;;;;0.47;0.47;;;15.60;72.60;;;;;;5073955;28;19913;-69
2023/12/25 11:42:24;;;;;;;0.50;0.50;;;15.50;72.60;;;;;;5073867;28;20020;-70
2023/12/25 11:44:55;;;;;;;0.50;0.50;;;15.50;72.60;;;;;;5073977;28;20033;-71
2023/12/25 11:47:28;;;;;;;0.47;0.47;;;15.40;72.50;;;;;;5073777;28;20078;-72
2023/12/25 11:49:56;;;;;;;0.40;0.40;;;15.40;72.60;;;;;;5055922;28;20033;-72
2023/12/25 11:52:53;;;;;;;0.50;0.50;;;15.40;72.80;;;;;;5073791;28;20028;-72
2023/12/25 11:55:21;;;;;;;0.40;0.40;;;15.40;72.80;;;;;;5073510;28;20035;-71
2023/12/25 11:57:46;;;;;;;0.55;0.55;;;15.30;72.80;;;;;;5073698;28;20020;-71
2023/12/25 12:00:35;;;;;;;0.40;0.40;;;15.30;72.70;;;;;;5073842;28;20045;-71
2023/12/25 12:03:01;;;;;;;0.77;0.73;;;15.40;72.80;;;;;;5073562;28;20414;-71
2023/12/25 12:05:27;;;;;;;0.60;0.60;;;15.30;72.80;;;;;;5073226;28;20035;-71
2023/12/25 12:07:53;;;;;;;0.50;0.50;;;15.30;73.00;;;;;;5073751;28;20448;-72
2023/12/25 12:10:18;;;;;;;0.40;0.40;;;15.30;73.10;;;;;;5073602;28;20086;-70
2023/12/25 12:12:44;;;;;;;0.30;0.30;;;15.40;72.90;;;;;;5073297;28;20111;-70
2023/12/25 12:15:10;;;;;;;0.40;0.40;;;15.40;72.90;;;;;;5073784;28;20421;-70
2023/12/25 12:17:35;;;;;;;0.47;0.47;;;15.40;73.00;;;;;;5073042;28;20039;-70
2023/12/25 12:20:02;;;;;;;0.40;0.40;;;15.50;72.80;;;;;;5073357;28;20032;-70
2023/12/25 12:22:28;;;;;;;0.40;0.40;;;15.40;72.70;;;;;;5073116;28;20033;-69
2023/12/25 12:25:14;;;;;;;0.40;0.40;;;15.40;72.70;;;;;;5073262;28;20036;-69
2023/12/25 12:27:40;;;;;;;0.40;0.40;;;15.40;73.00;;;;;;5054994;28;20548;-69
2023/12/25 12:30:07;;;;;;;0.40;0.40;;;15.50;72.80;;;;;;5072974;28;20086;-69
2023/12/25 12:32:34;;;;;;;0.30;0.30;;;15.40;72.90;;;;;;5072595;28;20029;-69
2023/12/25 12:34:59;;;;;;;0.40;0.40;;;15.50;72.90;;;;;;5073150;28;20040;-69
2023/12/25 12:37:25;;;;;;;0.30;0.30;;;15.40;72.80;;;;;;5072580;28;20468;-69
2023/12/25 12:39:50;;;;;;;0.45;0.45;;;15.40;72.70;;;;;;5072560;28;20487;-69
2023/12/25 12:42:16;;;;;;;0.40;0.40;;;15.40;72.60;;;;;;5072429;28;20028;-70